Time;durP1;ratioP1;P1;durP2;ratioP2;P2;SDS_P1;SDS_P2;PMS_P1;PMS_P2;Temp;Humidity;BMP_temperature;BMP_pressure;BME280_temperature;BME280_humidity;BME280_pressure;Samples;Min_cycle;Max_cycle;Signal;HPM_P1;HPM_P2
2023/11/06 00:00:33;;;;;;;21.93;10.90;;;6.90;99.90;;;;;;1928508;72;27141;-89
2023/11/06 00:20:19;;;;;;;20.47;11.20;;;7.00;99.90;;;;;;1943296;72;27576;-89
2023/11/06 00:23:07;;;;;;;22.03;10.53;;;7.10;99.90;;;;;;1937262;73;25889;-89
2023/11/06 00:28:49;;;;;;;26.70;11.20;;;7.10;99.90;;;;;;1978672;71;28059;-89
2023/11/06 00:31:41;;;;;;;20.40;10.43;;;7.20;99.90;;;;;;1983398;71;25199;-89
2023/11/06 00:34:29;;;;;;;17.97;10.33;;;7.20;99.90;;;;;;1986998;70;25227;-90
2023/11/06 00:37:18;;;;;;;23.03;11.37;;;7.10;99.90;;;;;;1980935;71;25227;-90
2023/11/06 00:40:10;;;;;;;20.37;10.93;;;7.10;99.90;;;;;;1984577;70;25771;-90
2023/11/06 00:55:26;;;;;;;30.17;14.27;;;7.10;99.90;;;;;;1892801;74;26404;-89
2023/11/06 00:58:16;;;;;;;22.50;13.23;;;7.00;99.90;;;;;;1872190;75;25307;-89
2023/11/06 01:01:05;;;;;;;24.20;11.50;;;7.00;99.90;;;;;;1905137;73;25320;-89
2023/11/06 01:06:47;;;;;;;30.83;13.50;;;7.00;99.90;;;;;;1944657;72;27082;-89
2023/11/06 01:09:35;;;;;;;29.47;12.83;;;7.00;99.90;;;;;;1935063;73;25289;-89
2023/11/06 01:12:24;;;;;;;26.40;13.33;;;6.90;99.90;;;;;;1931825;73;25268;-89
2023/11/06 01:17:56;;;;;;;28.10;13.83;;;6.90;99.90;;;;;;1937630;72;27109;-89
2023/11/06 01:20:45;;;;;;;27.20;13.67;;;7.00;99.90;;;;;;1910010;73;25253;-89
2023/11/06 01:23:34;;;;;;;36.83;14.60;;;6.90;99.90;;;;;;1911176;73;25258;-89
2023/11/06 01:26:22;;;;;;;28.60;13.77;;;6.90;99.90;;;;;;1905426;75;25252;-88
2023/11/06 01:29:12;;;;;;;30.43;15.00;;;6.90;99.90;;;;;;1909912;75;25308;-90
2023/11/06 01:32:01;;;;;;;26.60;13.37;;;6.90;99.90;;;;;;1897309;75;25280;-90
2023/11/06 01:34:50;;;;;;;28.03;13.23;;;6.80;99.90;;;;;;1905327;73;26412;-90
2023/11/06 01:37:39;;;;;;;30.90;13.90;;;6.90;99.90;;;;;;1904495;73;25267;-91
2023/11/06 01:40:30;;;;;;;25.47;13.37;;;6.90;99.90;;;;;;1905609;73;25713;-91
2023/11/06 01:43:24;;;;;;;27.23;12.83;;;6.90;99.90;;;;;;1891074;75;25901;-91
2023/11/06 01:46:13;;;;;;;24.73;12.67;;;6.90;99.90;;;;;;1900503;75;25228;-91
2023/11/06 01:49:03;;;;;;;24.97;12.30;;;6.90;99.90;;;;;;1914012;75;25195;-91
2023/11/06 01:51:53;;;;;;;28.10;12.83;;;6.90;99.90;;;;;;1906864;73;25216;-89
2023/11/06 01:57:28;;;;;;;26.23;14.53;;;6.90;99.90;;;;;;1932725;72;27524;-89
2023/11/06 02:00:19;;;;;;;30.50;13.93;;;6.80;99.90;;;;;;1928231;73;25213;-90
2023/11/06 02:03:08;;;;;;;24.10;13.00;;;6.90;99.90;;;;;;1909029;73;25686;-90
2023/11/06 02:05:57;;;;;;;26.17;14.07;;;6.80;99.90;;;;;;1905752;73;25674;-90
2023/11/06 02:08:45;;;;;;;27.77;12.93;;;6.90;99.90;;;;;;1891094;75;25283;-90
2023/11/06 02:11:35;;;;;;;27.60;13.13;;;6.90;99.90;;;;;;1918806;73;25220;-90
2023/11/06 02:14:24;;;;;;;26.77;13.73;;;6.90;99.90;;;;;;1908132;75;25194;-90
2023/11/06 02:17:13;;;;;;;29.60;14.23;;;6.90;99.90;;;;;;1907855;75;25681;-90
2023/11/06 02:20:01;;;;;;;30.17;13.87;;;6.90;99.90;;;;;;1895891;75;25341;-90
2023/11/06 02:22:51;;;;;;;28.27;12.83;;;6.90;99.90;;;;;;1909944;75;25169;-90
2023/11/06 02:25:39;;;;;;;27.27;13.13;;;6.80;99.90;;;;;;1891143;75;25172;-90
2023/11/06 02:28:29;;;;;;;27.03;13.53;;;6.80;99.90;;;;;;1908372;75;25198;-90
2023/11/06 02:31:17;;;;;;;23.23;12.83;;;6.80;99.90;;;;;;1904386;73;25207;-90
2023/11/06 02:34:06;;;;;;;20.40;12.03;;;6.90;99.90;;;;;;1890604;75;25231;-90
2023/11/06 02:36:55;;;;;;;22.20;12.70;;;6.80;99.90;;;;;;1893259;75;25672;-90
2023/11/06 02:39:43;;;;;;;28.47;14.37;;;6.80;99.90;;;;;;1906336;75;25320;-90
2023/11/06 02:42:31;;;;;;;24.87;12.60;;;6.80;99.90;;;;;;1903352;75;25715;-89
2023/11/06 02:45:20;;;;;;;26.37;13.13;;;6.80;99.90;;;;;;1896054;73;25210;-90
2023/11/06 02:48:09;;;;;;;26.83;13.50;;;6.80;99.90;;;;;;1882288;75;25221;-90
2023/11/06 02:50:57;;;;;;;23.40;13.17;;;6.80;99.90;;;;;;1899744;75;25283;-90
2023/11/06 02:53:46;;;;;;;24.77;12.60;;;6.90;99.90;;;;;;1886594;75;25264;-90
2023/11/06 02:56:35;;;;;;;26.27;12.67;;;6.90;99.90;;;;;;1890706;74;25275;-90
2023/11/06 02:59:24;;;;;;;28.33;12.43;;;6.90;99.90;;;;;;1893020;74;25218;-90
2023/11/06 03:02:12;;;;;;;21.23;12.00;;;7.00;99.90;;;;;;1903093;74;25272;-90
2023/11/06 03:05:03;;;;;;;24.53;12.53;;;6.90;99.90;;;;;;1917305;74;25220;-90
2023/11/06 03:07:51;;;;;;;27.50;11.73;;;6.90;99.90;;;;;;1891910;74;25283;-90
2023/11/06 03:10:40;;;;;;;19.30;10.73;;;7.00;99.90;;;;;;1899688;74;25740;-90
2023/11/06 03:13:29;;;;;;;22.27;11.20;;;7.00;99.90;;;;;;1900262;74;25215;-89
2023/11/06 03:20:09;;;;;;;26.70;12.73;;;7.00;99.90;;;;;;2026147;70;26061;-89
2023/11/06 03:22:56;;;;;;;26.13;12.93;;;6.90;99.90;;;;;;1970681;70;25220;-89
2023/11/06 03:25:45;;;;;;;24.77;12.37;;;7.00;99.90;;;;;;1974907;71;25300;-88
2023/11/06 03:28:34;;;;;;;23.70;11.90;;;6.90;99.90;;;;;;2001756;71;25238;-89
2023/11/06 03:31:23;;;;;;;27.83;10.97;;;7.00;99.90;;;;;;2000359;71;25153;-89
2023/11/06 03:37:27;;;;;;;23.30;12.93;;;7.00;99.90;;;;;;2077866;68;26315;-88
2023/11/06 03:40:16;;;;;;;23.03;12.90;;;7.00;99.90;;;;;;2003475;69;25774;-91
2023/11/06 03:43:05;;;;;;;23.90;12.20;;;7.00;99.90;;;;;;1994618;69;25906;-91
2023/11/06 03:45:53;;;;;;;20.43;11.57;;;7.10;99.90;;;;;;2002042;71;25233;-91
2023/11/06 03:51:28;;;;;;;25.33;11.63;;;7.10;99.90;;;;;;1955497;72;27134;-89
2023/11/06 03:54:16;;;;;;;24.47;11.50;;;7.10;99.90;;;;;;1927057;73;25162;-89
2023/11/06 03:57:05;;;;;;;27.90;12.10;;;7.00;99.90;;;;;;1917876;73;25258;-89
2023/11/06 03:59:54;;;;;;;19.13;11.77;;;7.00;99.90;;;;;;1922385;73;25235;-89
2023/11/06 04:02:44;;;;;;;24.63;12.43;;;7.00;99.90;;;;;;1934670;73;25802;-89
2023/11/06 04:05:32;;;;;;;29.37;13.03;;;7.00;99.90;;;;;;1929685;73;25939;-90
2023/11/06 04:08:21;;;;;;;25.30;12.57;;;7.00;99.90;;;;;;1937830;73;25245;-89
2023/11/06 04:11:09;;;;;;;26.70;12.70;;;7.10;99.90;;;;;;1919227;73;25190;-89
2023/11/06 04:13:58;;;;;;;31.50;13.43;;;7.00;99.90;;;;;;1931958;73;25191;-89
2023/11/06 04:16:47;;;;;;;27.83;14.07;;;7.10;99.90;;;;;;1937212;73;25323;-89
2023/11/06 04:32:44;;;;;;;21.67;11.20;;;7.10;99.90;;;;;;1895835;74;27681;-89
2023/11/06 04:38:25;;;;;;;29.17;12.40;;;7.20;99.90;;;;;;1943058;72;27129;-89
2023/11/06 04:41:13;;;;;;;24.13;12.67;;;7.20;99.90;;;;;;1947237;72;25221;-89
2023/11/06 04:46:50;;;;;;;23.47;12.50;;;7.30;99.90;;;;;;1933430;72;27067;-89
2023/11/06 04:49:39;;;;;;;21.00;12.47;;;7.30;99.90;;;;;;1849030;75;25166;-89
2023/11/06 04:52:28;;;;;;;27.90;12.80;;;7.20;99.90;;;;;;1867234;75;25302;-89
2023/11/06 04:58:03;;;;;;;26.37;13.30;;;7.10;99.90;;;;;;1942169;72;27561;-89
2023/11/06 05:03:34;;;;;;;31.23;13.83;;;7.10;99.90;;;;;;1938013;72;27086;-89
2023/11/06 05:06:22;;;;;;;24.90;14.50;;;7.00;99.90;;;;;;1883449;75;25232;-89
2023/11/06 05:09:11;;;;;;;27.60;13.53;;;6.90;99.90;;;;;;1885795;75;25286;-88
2023/11/06 05:11:59;;;;;;;27.73;13.67;;;7.00;99.90;;;;;;1896607;75;25210;-90
2023/11/06 05:14:48;;;;;;;29.73;14.20;;;7.10;99.90;;;;;;1886498;75;25250;-90
2023/11/06 05:20:20;;;;;;;25.47;13.20;;;7.00;99.90;;;;;;1945593;72;27605;-89
2023/11/06 05:23:09;;;;;;;29.17;13.00;;;7.10;99.90;;;;;;1905926;73;25207;-89
2023/11/06 05:25:57;;;;;;;28.03;13.80;;;7.00;99.90;;;;;;1912266;73;25228;-90
2023/11/06 05:28:46;;;;;;;32.27;14.40;;;7.10;99.90;;;;;;1922577;73;25213;-90
2023/11/06 05:31:35;;;;;;;28.00;12.13;;;7.20;99.90;;;;;;1910567;73;25251;-90
2023/11/06 05:34:23;;;;;;;29.07;13.43;;;7.30;99.90;;;;;;1912024;73;25657;-90
2023/11/06 05:37:12;;;;;;;33.10;13.30;;;7.20;99.90;;;;;;1897245;73;26460;-89
2023/11/06 05:40:00;;;;;;;28.67;13.30;;;7.10;99.90;;;;;;1869022;76;25757;-90
2023/11/06 05:42:49;;;;;;;26.30;12.80;;;7.10;99.90;;;;;;1863089;76;25268;-89
2023/11/06 05:45:38;;;;;;;25.90;12.00;;;7.10;99.90;;;;;;1865003;76;25252;-89
2023/11/06 05:51:13;;;;;;;21.80;11.43;;;7.00;99.90;;;;;;1941381;72;27139;-89
2023/11/06 05:54:02;;;;;;;28.63;11.93;;;6.90;99.90;;;;;;1925034;73;25685;-89
2023/11/06 05:56:50;;;;;;;26.33;10.90;;;6.90;99.90;;;;;;1926194;73;25237;-89
2023/11/06 05:59:39;;;;;;;21.77;11.57;;;7.00;99.90;;;;;;1940015;73;25162;-89
2023/11/06 06:02:27;;;;;;;33.50;11.83;;;7.00;99.90;;;;;;1931170;73;25260;-89
2023/11/06 06:05:17;;;;;;;25.57;12.30;;;6.90;99.90;;;;;;1925332;73;25751;-89
2023/11/06 06:08:06;;;;;;;23.87;11.33;;;7.00;99.90;;;;;;1934514;73;25285;-89
2023/11/06 06:10:54;;;;;;;24.10;11.23;;;7.00;99.90;;;;;;1917166;73;25211;-88
2023/11/06 06:13:45;;;;;;;21.70;10.80;;;7.10;99.90;;;;;;1925110;73;25393;-91
2023/11/06 06:16:34;;;;;;;24.07;10.67;;;7.10;99.90;;;;;;1927116;73;25229;-88
2023/11/06 06:19:23;;;;;;;22.13;10.67;;;7.10;99.90;;;;;;1921396;73;25215;-89
2023/11/06 06:24:59;;;;;;;25.47;10.97;;;7.10;99.90;;;;;;1946938;72;27092;-88
2023/11/06 06:30:35;;;;;;;24.73;10.50;;;7.20;99.90;;;;;;1942061;72;27116;-89
2023/11/06 06:33:23;;;;;;;21.63;9.20;;;7.20;99.90;;;;;;1926779;73;25913;-88
2023/11/06 06:36:13;;;;;;;19.20;10.43;;;7.20;99.90;;;;;;1856670;75;25267;-89
2023/11/06 06:39:05;;;;;;;17.73;9.63;;;7.10;99.90;;;;;;1917995;73;25270;-90
2023/11/06 06:41:52;;;;;;;19.00;10.20;;;7.20;99.90;;;;;;1918530;73;25295;-90
2023/11/06 06:44:40;;;;;;;18.07;9.87;;;7.10;99.90;;;;;;1888791;73;25655;-90
2023/11/06 06:47:29;;;;;;;26.33;10.70;;;7.20;99.90;;;;;;1913986;74;25230;-91
2023/11/06 07:03:45;;;;;;;17.33;8.90;;;7.20;99.90;;;;;;1867583;74;27206;-91
2023/11/06 07:06:36;;;;;;;20.00;9.00;;;7.20;99.90;;;;;;1897128;75;25241;-90
2023/11/06 07:12:17;;;;;;;15.03;7.67;;;7.30;99.90;;;;;;1944245;72;26942;-88
2023/11/06 07:15:07;;;;;;;17.93;8.77;;;7.30;99.90;;;;;;1952757;72;25214;-91
2023/11/06 07:17:56;;;;;;;15.13;8.07;;;7.30;99.90;;;;;;1944499;72;25259;-91
2023/11/06 07:20:45;;;;;;;15.57;8.00;;;7.20;99.90;;;;;;1946256;72;25209;-91
2023/11/06 07:23:34;;;;;;;17.93;8.10;;;7.30;99.90;;;;;;1951012;72;25795;-91
2023/11/06 07:26:23;;;;;;;15.33;8.67;;;7.30;99.90;;;;;;1929388;72;25697;-91
2023/11/06 07:29:11;;;;;;;18.43;8.73;;;7.20;99.90;;;;;;1954654;72;25245;-91
2023/11/06 07:32:00;;;;;;;22.03;9.67;;;7.20;99.90;;;;;;1943990;72;25222;-91
2023/11/06 07:34:49;;;;;;;14.40;8.27;;;7.20;99.90;;;;;;1953566;72;25594;-91
2023/11/06 07:40:18;;;;;;;15.67;8.80;;;7.30;99.90;;;;;;1918436;72;27293;-89
2023/11/06 07:43:08;;;;;;;17.07;8.00;;;7.40;99.90;;;;;;1909305;73;25246;-89
2023/11/06 07:45:57;;;;;;;18.07;7.90;;;7.40;99.90;;;;;;1898147;74;25246;-90
2023/11/06 08:04:46;;;;;;;13.07;8.00;;;7.30;99.90;;;;;;1958038;72;26918;-89
2023/11/06 08:07:35;;;;;;;13.43;7.60;;;7.40;99.90;;;;;;1921315;73;25409;-89
2023/11/06 08:10:27;;;;;;;13.87;8.20;;;7.40;99.90;;;;;;1925347;73;25774;-89
2023/11/06 08:13:14;;;;;;;14.20;7.60;;;7.40;99.90;;;;;;1951299;72;25264;-89
2023/11/06 08:16:03;;;;;;;16.10;7.77;;;7.40;99.90;;;;;;1928560;73;25777;-89
2023/11/06 08:18:53;;;;;;;19.63;8.00;;;7.40;99.90;;;;;;1909079;73;25733;-90
2023/11/06 08:21:42;;;;;;;11.60;7.00;;;7.40;99.90;;;;;;1923963;73;25191;-89
2023/11/06 08:24:31;;;;;;;12.40;7.07;;;7.50;99.90;;;;;;1916276;73;25266;-89
2023/11/06 08:30:34;;;;;;;10.73;7.30;;;7.50;99.90;;;;;;1979361;71;26692;-89
2023/11/06 08:33:53;;;;;;;10.00;7.00;;;7.40;99.90;;;;;;2005666;70;25254;-89
2023/11/06 08:36:45;;;;;;;17.27;7.10;;;7.40;99.90;;;;;;2024728;69;25143;-90
2023/11/06 08:39:34;;;;;;;11.30;6.43;;;7.60;99.90;;;;;;2007119;70;25256;-90
2023/11/06 08:42:23;;;;;;;10.23;6.50;;;7.60;99.90;;;;;;2014443;70;25230;-90
2023/11/06 08:45:12;;;;;;;13.83;6.93;;;7.50;99.90;;;;;;2002238;70;25215;-90
2023/11/06 08:48:01;;;;;;;14.00;7.00;;;7.50;99.90;;;;;;2008896;70;25299;-90
2023/11/06 08:50:49;;;;;;;16.23;6.17;;;7.50;99.90;;;;;;1995968;70;25184;-89
2023/11/06 08:53:38;;;;;;;14.00;6.00;;;7.70;99.90;;;;;;1997524;72;25297;-90
2023/11/06 08:56:29;;;;;;;15.13;6.23;;;7.70;99.90;;;;;;1985237;72;25165;-90
2023/11/06 08:59:16;;;;;;;12.20;5.80;;;7.70;99.90;;;;;;1987430;70;25211;-90
2023/11/06 09:15:18;;;;;;;9.00;3.93;;;7.80;99.90;;;;;;1895762;73;27044;-89
2023/11/06 09:21:21;;;;;;;15.53;5.03;;;7.80;99.90;;;;;;1971284;71;27034;-89
2023/11/06 09:24:11;;;;;;;9.87;4.50;;;7.80;99.90;;;;;;1917324;74;25303;-89
2023/11/06 09:27:00;;;;;;;13.40;5.17;;;7.80;99.90;;;;;;1911662;73;25819;-91
2023/11/06 09:29:48;;;;;;;15.70;5.33;;;7.80;99.90;;;;;;1924991;73;25277;-89
2023/11/06 09:32:37;;;;;;;15.03;5.30;;;7.80;99.90;;;;;;1914785;73;25260;-89
2023/11/06 09:35:28;;;;;;;12.10;4.47;;;7.80;99.90;;;;;;1917687;74;25680;-89
2023/11/06 09:38:18;;;;;;;9.13;4.37;;;7.80;99.90;;;;;;1908130;73;25199;-91
2023/11/06 09:41:07;;;;;;;6.67;4.20;;;7.70;99.90;;;;;;1914954;74;25167;-89
2023/11/06 09:43:56;;;;;;;11.43;4.80;;;7.60;99.90;;;;;;1934361;73;25340;-89
2023/11/06 09:49:40;;;;;;;9.13;4.77;;;7.70;99.90;;;;;;1950628;72;27057;-89
2023/11/06 09:52:29;;;;;;;11.63;4.60;;;7.70;99.90;;;;;;1876977;76;25299;-90
2023/11/06 09:55:19;;;;;;;8.97;4.60;;;7.80;99.90;;;;;;1869074;76;25205;-89
2023/11/06 10:00:48;;;;;;;9.37;4.50;;;7.80;99.90;;;;;;1928821;72;27022;-89
2023/11/06 10:03:38;;;;;;;8.27;4.50;;;7.90;99.90;;;;;;1886516;75;25353;-89
2023/11/06 10:06:27;;;;;;;10.13;4.43;;;7.90;99.90;;;;;;1850753;76;25237;-89
2023/11/06 10:09:23;;;;;;;10.90;4.63;;;7.80;99.90;;;;;;1840388;76;25713;-89
2023/11/06 10:12:18;;;;;;;11.87;4.60;;;7.80;99.90;;;;;;1849395;76;25346;-90
2023/11/06 10:15:11;;;;;;;11.37;4.20;;;7.80;99.90;;;;;;1800284;78;25268;-89
2023/11/06 10:18:14;;;;;;;9.80;4.37;;;7.90;99.90;;;;;;1884434;75;25645;-90
2023/11/06 10:21:04;;;;;;;7.10;4.17;;;7.80;99.90;;;;;;1884827;75;25172;-89
2023/11/06 10:23:59;;;;;;;6.90;4.13;;;7.90;99.90;;;;;;1851089;76;25248;-89
2023/11/06 10:26:47;;;;;;;11.87;4.77;;;7.90;99.90;;;;;;1825010;76;25337;-89
2023/11/06 10:29:38;;;;;;;5.90;4.00;;;8.00;99.90;;;;;;1824728;76;25236;-91
2023/11/06 10:32:27;;;;;;;8.87;4.27;;;7.90;99.90;;;;;;1859136;76;25166;-91
2023/11/06 10:38:34;;;;;;;8.43;4.00;;;7.90;99.90;;;;;;1979941;71;27524;-90
2023/11/06 10:41:26;;;;;;;8.40;3.80;;;7.80;99.90;;;;;;1991063;70;25742;-90
2023/11/06 10:47:09;;;;;;;8.73;3.53;;;7.80;99.90;;;;;;1946872;72;27175;-91
2023/11/06 10:52:45;;;;;;;7.67;3.77;;;7.90;99.90;;;;;;1934712;72;27176;-90
2023/11/06 10:59:04;;;;;;;6.33;3.87;;;8.00;99.90;;;;;;1943925;72;27047;-89
2023/11/06 11:04:51;;;;;;;6.80;3.97;;;8.00;99.90;;;;;;1956683;72;26947;-89
2023/11/06 11:07:40;;;;;;;6.50;3.43;;;8.00;99.90;;;;;;1921934;73;25290;-91
2023/11/06 11:10:29;;;;;;;8.37;3.47;;;8.00;99.90;;;;;;1927971;73;25624;-91
2023/11/06 11:13:18;;;;;;;5.83;3.70;;;7.90;99.90;;;;;;1920796;73;25668;-92
2023/11/06 11:16:38;;;;;;;5.50;3.40;;;7.80;99.90;;;;;;1927077;72;25217;-92
2023/11/06 11:19:31;;;;;;;8.20;3.43;;;7.90;99.90;;;;;;1936956;73;25221;-92
2023/11/06 11:22:18;;;;;;;6.87;3.20;;;7.90;99.90;;;;;;1923132;73;25229;-92
2023/11/06 11:25:08;;;;;;;7.10;3.70;;;7.80;99.90;;;;;;1923026;73;25791;-92
2023/11/06 11:28:14;;;;;;;5.87;3.43;;;7.90;99.90;;;;;;1934048;72;25331;-91
2023/11/06 11:31:35;;;;;;;5.93;3.33;;;7.90;99.90;;;;;;1934034;73;25270;-92
2023/11/06 11:34:30;;;;;;;7.03;3.20;;;8.00;99.90;;;;;;1933538;73;26634;-92
2023/11/06 11:40:58;;;;;;;5.07;3.23;;;8.00;99.90;;;;;;1959827;72;26918;-89
2023/11/06 11:43:50;;;;;;;10.27;3.50;;;8.00;99.90;;;;;;1933673;73;25210;-91
2023/11/06 11:47:00;;;;;;;5.50;3.37;;;8.00;99.90;;;;;;1923676;73;25344;-90
2023/11/06 12:04:16;;;;;;;4.93;3.30;;;8.00;99.90;;;;;;1842376;76;26726;-91
2023/11/06 12:07:06;;;;;;;5.47;3.50;;;8.10;99.90;;;;;;1808548;78;25352;-91
2023/11/06 12:09:56;;;;;;;6.67;3.50;;;8.10;99.90;;;;;;1807846;78;25317;-91
2023/11/06 12:12:45;;;;;;;6.13;3.60;;;8.00;99.90;;;;;;1811513;78;25605;-91
2023/11/06 12:15:34;;;;;;;8.90;3.50;;;8.00;99.90;;;;;;1811869;78;25320;-91
2023/11/06 12:18:23;;;;;;;8.00;3.70;;;8.10;99.90;;;;;;1814895;78;25250;-91
2023/11/06 12:21:15;;;;;;;7.13;3.43;;;8.10;99.90;;;;;;1826184;78;25359;-91
2023/11/06 12:24:08;;;;;;;5.27;3.30;;;8.20;99.90;;;;;;1813962;78;25725;-91
2023/11/06 12:26:58;;;;;;;6.87;3.70;;;8.20;99.90;;;;;;1820575;78;25210;-90
2023/11/06 12:29:46;;;;;;;6.60;3.60;;;8.10;99.90;;;;;;1805828;78;25781;-90
2023/11/06 12:32:36;;;;;;;8.00;3.90;;;8.00;99.90;;;;;;1815108;78;25204;-90
2023/11/06 12:35:25;;;;;;;6.50;3.40;;;8.00;99.90;;;;;;1833656;78;25290;-90
2023/11/06 12:38:15;;;;;;;6.07;3.70;;;8.00;99.90;;;;;;1839711;78;25818;-91
2023/11/06 12:56:58;;;;;;;6.40;3.23;;;8.10;99.90;;;;;;1940194;72;27988;-89
2023/11/06 12:59:47;;;;;;;6.53;3.60;;;8.10;99.90;;;;;;1909023;73;25165;-89
2023/11/06 13:02:37;;;;;;;5.17;3.60;;;8.10;99.90;;;;;;1903738;75;25208;-87
2023/11/06 13:05:29;;;;;;;4.83;3.60;;;8.20;99.90;;;;;;1902622;75;25593;-89
2023/11/06 13:11:00;;;;;;;8.00;4.00;;;8.20;99.90;;;;;;1945645;72;27062;-89
2023/11/06 13:13:50;;;;;;;4.67;3.30;;;8.10;99.90;;;;;;1938300;72;25173;-89
2023/11/06 13:16:39;;;;;;;7.77;4.00;;;8.20;99.90;;;;;;1938796;72;25256;-90
2023/11/06 13:19:28;;;;;;;6.13;3.70;;;8.10;99.90;;;;;;1925789;73;25840;-89
2023/11/06 13:22:18;;;;;;;6.30;3.90;;;8.20;99.90;;;;;;1940706;72;25151;-89
2023/11/06 13:25:08;;;;;;;6.63;3.50;;;8.20;99.90;;;;;;1937305;73;25623;-89
2023/11/06 13:27:57;;;;;;;9.60;3.57;;;8.20;99.90;;;;;;1927645;73;25219;-89
2023/11/06 13:30:46;;;;;;;6.23;3.50;;;8.20;99.90;;;;;;1935094;73;25229;-89
2023/11/06 13:33:36;;;;;;;7.40;4.10;;;8.20;99.90;;;;;;1941028;72;25258;-87
2023/11/06 13:36:25;;;;;;;7.67;3.80;;;8.10;99.90;;;;;;1932594;72;25326;-87
2023/11/06 13:39:19;;;;;;;10.53;4.27;;;8.10;99.90;;;;;;1925995;73;25163;-87
2023/11/06 13:44:50;;;;;;;8.47;4.27;;;8.20;99.90;;;;;;1930575;72;28055;-87
2023/11/06 13:48:08;;;;;;;7.07;3.90;;;8.20;99.90;;;;;;1910904;75;25222;-87
2023/11/06 13:50:50;;;;;;;7.33;4.30;;;8.20;99.90;;;;;;1898798;75;25227;-88
2023/11/06 13:56:32;;;;;;;6.50;3.87;;;8.20;99.90;;;;;;1943700;72;27587;-87
2023/11/06 14:02:05;;;;;;;8.73;4.00;;;8.20;99.90;;;;;;1952525;72;27716;-87
2023/11/06 14:04:56;;;;;;;6.97;4.57;;;8.20;99.90;;;;;;1883223;74;25236;-87
2023/11/06 14:07:41;;;;;;;11.50;4.83;;;8.30;99.90;;;;;;1890201;75;25253;-87
2023/11/06 14:10:33;;;;;;;9.37;4.53;;;8.20;99.90;;;;;;1872570;75;25776;-88
2023/11/06 14:13:23;;;;;;;13.37;5.03;;;8.20;99.90;;;;;;1890065;74;25300;-88
2023/11/06 14:16:14;;;;;;;13.10;4.77;;;8.30;99.90;;;;;;1880258;74;25292;-87
2023/11/06 14:19:04;;;;;;;9.83;5.20;;;8.30;99.90;;;;;;1875280;74;25362;-90
2023/11/06 14:21:53;;;;;;;9.37;5.17;;;8.30;99.90;;;;;;1879962;75;25724;-87
2023/11/06 14:24:41;;;;;;;10.20;5.00;;;8.20;99.90;;;;;;1868190;74;25864;-87
2023/11/06 14:27:34;;;;;;;11.60;4.83;;;8.10;99.90;;;;;;1876377;74;25725;-87
2023/11/06 14:30:25;;;;;;;12.80;5.10;;;8.10;99.90;;;;;;1858698;75;25388;-87
2023/11/06 14:35:54;;;;;;;12.13;5.17;;;8.10;99.90;;;;;;1950673;72;27597;-88
2023/11/06 14:38:43;;;;;;;11.87;5.10;;;8.10;99.90;;;;;;1889047;73;25380;-88
2023/11/06 14:44:32;;;;;;;10.27;5.00;;;8.20;99.90;;;;;;1953245;71;27021;-88
2023/11/06 14:47:21;;;;;;;9.70;5.30;;;8.20;99.90;;;;;;1923570;73;25279;-87
2023/11/06 14:50:16;;;;;;;9.90;5.30;;;8.20;99.90;;;;;;1928102;73;25184;-87
2023/11/06 14:53:07;;;;;;;12.97;4.77;;;8.10;99.90;;;;;;1938019;73;25235;-87
2023/11/06 14:55:59;;;;;;;13.97;5.70;;;8.20;99.90;;;;;;1893894;75;25258;-87
2023/11/06 14:58:48;;;;;;;10.17;5.53;;;8.20;99.90;;;;;;1910792;73;25659;-87
2023/11/06 15:01:40;;;;;;;13.63;5.67;;;8.10;99.90;;;;;;1913469;73;25735;-89
2023/11/06 15:04:32;;;;;;;10.90;5.33;;;8.10;99.90;;;;;;1943206;72;25288;-87
2023/11/06 15:07:21;;;;;;;11.17;5.33;;;8.10;99.90;;;;;;1930435;72;25269;-87
2023/11/06 15:10:12;;;;;;;8.47;5.33;;;8.10;99.90;;;;;;1931062;72;25331;-87
2023/11/06 15:13:03;;;;;;;12.20;5.20;;;8.10;99.90;;;;;;1894509;75;25300;-87
2023/11/06 15:15:54;;;;;;;8.60;5.00;;;8.20;99.90;;;;;;1896011;75;25701;-87
2023/11/06 15:18:44;;;;;;;15.27;6.27;;;8.30;99.90;;;;;;1897962;74;25280;-87
2023/11/06 15:21:34;;;;;;;12.73;6.67;;;8.20;99.90;;;;;;1878765;73;25701;-87
2023/11/06 15:24:25;;;;;;;11.30;6.23;;;8.20;99.90;;;;;;1905687;73;25167;-87
2023/11/06 15:29:58;;;;;;;14.90;7.13;;;8.10;99.90;;;;;;1950561;72;27055;-87
2023/11/06 15:36:06;;;;;;;14.43;7.13;;;8.00;99.90;;;;;;1940731;72;26989;-87
2023/11/06 15:38:55;;;;;;;14.63;7.40;;;8.00;99.90;;;;;;1946535;72;25256;-87
2023/11/06 15:44:36;;;;;;;13.10;6.13;;;8.10;99.90;;;;;;1953329;72;27020;-87
2023/11/06 15:47:29;;;;;;;12.27;6.73;;;8.00;99.90;;;;;;1918591;73;25250;-88
2023/11/06 15:54:08;;;;;;;15.33;5.50;;;7.90;99.90;;;;;;1942806;73;25229;-88
2023/11/06 15:57:04;;;;;;;11.10;5.87;;;8.00;99.90;;;;;;1923261;73;25746;-88
2023/11/06 16:03:00;;;;;;;13.70;5.83;;;8.00;99.90;;;;;;1947063;72;28864;-88
2023/11/06 16:06:28;;;;;;;14.70;5.23;;;8.00;99.90;;;;;;1931168;73;25751;-89
2023/11/06 16:13:11;;;;;;;10.13;5.63;;;7.90;99.90;;;;;;1896497;75;25789;-87
2023/11/06 16:16:04;;;;;;;13.70;6.37;;;7.90;99.90;;;;;;1922757;73;26600;-87
2023/11/06 16:27:00;;;;;;;12.87;5.43;;;8.00;99.90;;;;;;1924221;73;25214;-87
2023/11/06 16:32:47;;;;;;;10.87;5.60;;;7.90;99.90;;;;;;1949957;72;27034;-87
2023/11/06 16:35:49;;;;;;;11.00;6.07;;;7.90;99.90;;;;;;1936352;74;25249;-87
2023/11/06 16:38:41;;;;;;;12.43;5.87;;;7.90;99.90;;;;;;1904819;74;25243;-87
2023/11/06 16:41:30;;;;;;;16.10;6.70;;;7.80;99.90;;;;;;1911776;73;25233;-90
2023/11/06 16:44:19;;;;;;;12.67;6.50;;;7.90;99.90;;;;;;1875512;76;25287;-87
2023/11/06 16:47:09;;;;;;;14.60;6.57;;;7.90;99.90;;;;;;1883414;75;25238;-89
2023/11/06 16:49:59;;;;;;;12.57;6.90;;;7.80;99.90;;;;;;1882955;76;25231;-89
2023/11/06 16:52:48;;;;;;;14.37;7.13;;;7.80;99.90;;;;;;1863940;75;25217;-87
2023/11/06 16:55:36;;;;;;;11.73;6.93;;;7.80;99.90;;;;;;1876313;75;25769;-88
2023/11/06 17:13:30;;;;;;;14.47;7.50;;;7.80;99.90;;;;;;1981337;71;28238;-87
2023/11/06 17:16:21;;;;;;;11.77;6.73;;;7.90;99.90;;;;;;1969233;72;25235;-89
2023/11/06 17:19:10;;;;;;;10.63;6.40;;;7.90;99.90;;;;;;2042700;69;25206;-87
2023/11/06 17:21:59;;;;;;;11.57;6.57;;;7.80;99.90;;;;;;2034033;69;25275;-86
2023/11/06 17:27:31;;;;;;;11.27;6.60;;;7.90;99.90;;;;;;1973411;71;27091;-86
2023/11/06 17:33:01;;;;;;;13.60;6.60;;;7.80;99.90;;;;;;1944168;72;27033;-87
2023/11/06 17:35:49;;;;;;;12.13;7.30;;;7.90;99.90;;;;;;1908758;75;25207;-86
2023/11/06 17:38:37;;;;;;;14.67;6.73;;;7.90;99.90;;;;;;1908453;75;25231;-88
2023/11/06 17:41:26;;;;;;;11.27;6.63;;;7.80;99.90;;;;;;1883139;75;25204;-90
2023/11/06 17:44:15;;;;;;;10.87;6.80;;;7.80;99.90;;;;;;1826614;77;25337;-88
2023/11/06 17:47:03;;;;;;;10.03;6.77;;;7.80;99.90;;;;;;1880120;74;25224;-90
2023/11/06 17:49:52;;;;;;;13.30;7.20;;;7.80;99.90;;;;;;1892455;74;25567;-89
2023/11/06 17:52:41;;;;;;;14.23;7.37;;;7.80;99.90;;;;;;1880839;74;25343;-90
2023/11/06 17:55:31;;;;;;;10.37;6.73;;;7.80;99.90;;;;;;1866229;74;25236;-90
2023/11/06 18:01:41;;;;;;;12.77;7.23;;;7.80;99.90;;;;;;1987664;71;27057;-89
2023/11/06 18:04:30;;;;;;;13.67;7.37;;;7.70;99.90;;;;;;2027258;70;25673;-89
2023/11/06 18:07:18;;;;;;;15.67;7.50;;;7.80;99.90;;;;;;2020149;70;25630;-89
2023/11/06 18:10:11;;;;;;;12.80;7.40;;;7.70;99.90;;;;;;1999613;70;25256;-88
2023/11/06 18:13:06;;;;;;;18.00;7.93;;;7.70;99.90;;;;;;2017330;70;25239;-88
2023/11/06 18:16:07;;;;;;;12.20;7.20;;;7.70;99.90;;;;;;2021403;70;25110;-88
2023/11/06 18:18:56;;;;;;;15.83;7.80;;;7.80;99.90;;;;;;2018518;70;25912;-88
2023/11/06 18:21:47;;;;;;;15.53;8.83;;;7.70;99.90;;;;;;2026915;69;25229;-89
2023/11/06 18:27:29;;;;;;;18.30;8.47;;;7.70;99.90;;;;;;1967204;72;26978;-89
2023/11/06 18:30:18;;;;;;;14.77;8.40;;;7.70;99.90;;;;;;1935611;73;25270;-89
2023/11/06 18:35:52;;;;;;;12.37;7.23;;;7.70;99.90;;;;;;1984112;71;27069;-88
2023/11/06 18:38:41;;;;;;;10.87;6.93;;;7.70;99.90;;;;;;1918269;73;25210;-90
2023/11/06 18:41:31;;;;;;;14.40;6.50;;;7.70;99.90;;;;;;1914180;73;25202;-90
2023/11/06 18:44:20;;;;;;;15.30;8.43;;;7.80;99.90;;;;;;1877571;75;25958;-90
2023/11/06 18:49:51;;;;;;;11.73;5.63;;;7.70;99.90;;;;;;1976181;71;27083;-88
2023/11/06 18:52:40;;;;;;;16.97;7.67;;;7.80;99.90;;;;;;1960762;72;25243;-88
2023/11/06 18:55:28;;;;;;;16.63;7.30;;;7.70;99.90;;;;;;1968889;72;25653;-88
2023/11/06 19:01:12;;;;;;;14.40;6.97;;;7.70;99.90;;;;;;1947365;72;27064;-90
2023/11/06 19:04:02;;;;;;;10.27;4.43;;;7.70;99.90;;;;;;1932703;72;25266;-90
2023/11/06 19:06:51;;;;;;;14.00;7.90;;;7.70;99.90;;;;;;1949693;72;25254;-90
2023/11/06 19:12:31;;;;;;;13.53;7.43;;;7.70;99.90;;;;;;1945499;72;26988;-87
2023/11/06 19:28:31;;;;;;;10.83;5.17;;;7.70;99.90;;;;;;1878624;76;27126;-88
2023/11/06 19:34:02;;;;;;;9.90;5.40;;;7.60;99.90;;;;;;1900404;74;27186;-88
2023/11/06 19:39:44;;;;;;;10.40;5.70;;;7.60;99.90;;;;;;1944120;72;27147;-90
2023/11/06 19:45:17;;;;;;;7.47;4.13;;;7.60;99.90;;;;;;1941508;72;27079;-90